<?xml version="1.0" encoding="UTF-8" standalone="no" ?>
<gpx xmlns="http://www.topografix.com/GPX/1/1" xmlns:xsi="http://www.w3.org/2001/XMLSchema-instance" xsi:schemaLocation="http://www.topografix.com/GPX/1/1 http://www.topografix.com/GPX/1/1/gpx.xsd" version="1.1" creator="VisuGPX - https://www.visugpx.com">
  <metadata>
    <name>121020ROBGazoParacole</name>
    <desc><![CDATA[Sortie plaisante, un peu éprouvante pour les mollets de nos jeunes.]]></desc>
  </metadata>
  <trk>
    <name><![CDATA[121020ROBGazoParacole]]></name>
    <cmt><![CDATA[8 km à ajouter, non pris en compte]]></cmt>
    <trkseg>
      <trkpt lat="43.42048" lon="6.05125">
        <ele>263.20001220703</ele>
        <time>2012-10-20T12:56:03Z</time>
      </trkpt>
      <trkpt lat="43.42072" lon="6.05115">
        <ele>263.39999389648</ele>
        <time>2012-10-20T12:56:15Z</time>
      </trkpt>
      <trkpt lat="43.42102" lon="6.05117">
        <ele>263.39999389648</ele>
        <time>2012-10-20T12:56:26Z</time>
      </trkpt>
      <trkpt lat="43.42113" lon="6.05115">
        <ele>264.60000610352</ele>
        <time>2012-10-20T12:56:30Z</time>
      </trkpt>
      <trkpt lat="43.42118" lon="6.05115">
        <ele>265.39999389648</ele>
        <time>2012-10-20T12:56:32Z</time>
      </trkpt>
      <trkpt lat="43.42146" lon="6.05131">
        <ele>267.20001220703</ele>
        <time>2012-10-20T12:56:45Z</time>
      </trkpt>
      <trkpt lat="43.42176" lon="6.0515">
        <ele>267.60000610352</ele>
        <time>2012-10-20T12:56:59Z</time>
      </trkpt>
      <trkpt lat="43.42183" lon="6.05164">
        <ele>267.60000610352</ele>
        <time>2012-10-20T12:57:03Z</time>
      </trkpt>
      <trkpt lat="43.42193" lon="6.05169">
        <ele>267.60000610352</ele>
        <time>2012-10-20T12:57:07Z</time>
      </trkpt>
      <trkpt lat="43.42197" lon="6.0517">
        <ele>269.79998779297</ele>
        <time>2012-10-20T12:57:18Z</time>
      </trkpt>
      <trkpt lat="43.4221" lon="6.05183">
        <ele>269.79998779297</ele>
        <time>2012-10-20T12:58:10Z</time>
      </trkpt>
      <trkpt lat="43.42244" lon="6.0521">
        <ele>272</ele>
        <time>2012-10-20T12:58:29Z</time>
      </trkpt>
      <trkpt lat="43.42266" lon="6.05211">
        <ele>272</ele>
        <time>2012-10-20T12:58:39Z</time>
      </trkpt>
      <trkpt lat="43.42287" lon="6.05194">
        <ele>274.20001220703</ele>
        <time>2012-10-20T12:58:51Z</time>
      </trkpt>
      <trkpt lat="43.4231" lon="6.05206">
        <ele>274.20001220703</ele>
        <time>2012-10-20T12:59:02Z</time>
      </trkpt>
      <trkpt lat="43.42316" lon="6.05206">
        <ele>274.60000610352</ele>
        <time>2012-10-20T12:59:05Z</time>
      </trkpt>
      <trkpt lat="43.42342" lon="6.05199">
        <ele>276.79998779297</ele>
        <time>2012-10-20T12:59:18Z</time>
      </trkpt>
      <trkpt lat="43.42342" lon="6.05199">
        <ele>277.20001220703</ele>
        <time>2012-10-20T12:59:19Z</time>
      </trkpt>
      <trkpt lat="43.42357" lon="6.05198">
        <ele>278.39999389648</ele>
        <time>2012-10-20T12:59:28Z</time>
      </trkpt>
      <trkpt lat="43.42364" lon="6.05191">
        <ele>280.60000610352</ele>
        <time>2012-10-20T12:59:34Z</time>
      </trkpt>
      <trkpt lat="43.42377" lon="6.05188">
        <ele>281</ele>
        <time>2012-10-20T12:59:42Z</time>
      </trkpt>
      <trkpt lat="43.42384" lon="6.05186">
        <ele>282.79998779297</ele>
        <time>2012-10-20T12:59:48Z</time>
      </trkpt>
      <trkpt lat="43.42397" lon="6.05172">
        <ele>285.60000610352</ele>
        <time>2012-10-20T13:00:02Z</time>
      </trkpt>
      <trkpt lat="43.42397" lon="6.05172">
        <ele>287</ele>
        <time>2012-10-20T13:00:20Z</time>
      </trkpt>
      <trkpt lat="43.42393" lon="6.05166">
        <ele>287</ele>
        <time>2012-10-20T13:00:27Z</time>
      </trkpt>
      <trkpt lat="43.42392" lon="6.05157">
        <ele>287</ele>
        <time>2012-10-20T13:00:34Z</time>
      </trkpt>
      <trkpt lat="43.42395" lon="6.05164">
        <ele>287</ele>
        <time>2012-10-20T13:01:53Z</time>
      </trkpt>
      <trkpt lat="43.42397" lon="6.05171">
        <ele>287</ele>
        <time>2012-10-20T13:02:12Z</time>
      </trkpt>
      <trkpt lat="43.424" lon="6.0519">
        <ele>285.60000610352</ele>
        <time>2012-10-20T13:02:18Z</time>
      </trkpt>
      <trkpt lat="43.42406" lon="6.0521">
        <ele>284.39999389648</ele>
        <time>2012-10-20T13:02:22Z</time>
      </trkpt>
      <trkpt lat="43.42418" lon="6.05224">
        <ele>282.60000610352</ele>
        <time>2012-10-20T13:02:26Z</time>
      </trkpt>
      <trkpt lat="43.42438" lon="6.05224">
        <ele>282.60000610352</ele>
        <time>2012-10-20T13:02:32Z</time>
      </trkpt>
      <trkpt lat="43.4245" lon="6.05219">
        <ele>282.60000610352</ele>
        <time>2012-10-20T13:02:40Z</time>
      </trkpt>
      <trkpt lat="43.42464" lon="6.05212">
        <ele>282.60000610352</ele>
        <time>2012-10-20T13:02:49Z</time>
      </trkpt>
      <trkpt lat="43.42469" lon="6.05212">
        <ele>283</ele>
        <time>2012-10-20T13:02:54Z</time>
      </trkpt>
      <trkpt lat="43.42469" lon="6.05212">
        <ele>284.79998779297</ele>
        <time>2012-10-20T13:03:19Z</time>
      </trkpt>
      <trkpt lat="43.42511" lon="6.05225">
        <ele>284.79998779297</ele>
        <time>2012-10-20T13:03:55Z</time>
      </trkpt>
      <trkpt lat="43.42539" lon="6.05224">
        <ele>284.79998779297</ele>
        <time>2012-10-20T13:04:07Z</time>
      </trkpt>
      <trkpt lat="43.42564" lon="6.05218">
        <ele>284.79998779297</ele>
        <time>2012-10-20T13:04:17Z</time>
      </trkpt>
      <trkpt lat="43.42585" lon="6.05226">
        <ele>284.79998779297</ele>
        <time>2012-10-20T13:04:28Z</time>
      </trkpt>
      <trkpt lat="43.42596" lon="6.05237">
        <ele>284.79998779297</ele>
        <time>2012-10-20T13:04:34Z</time>
      </trkpt>
      <trkpt lat="43.42607" lon="6.05248">
        <ele>284.79998779297</ele>
        <time>2012-10-20T13:04:40Z</time>
      </trkpt>
      <trkpt lat="43.42631" lon="6.05265">
        <ele>286.79998779297</ele>
        <time>2012-10-20T13:04:54Z</time>
      </trkpt>
      <trkpt lat="43.42637" lon="6.05274">
        <ele>286.79998779297</ele>
        <time>2012-10-20T13:07:51Z</time>
      </trkpt>
      <trkpt lat="43.42646" lon="6.05282">
        <ele>286.79998779297</ele>
        <time>2012-10-20T13:07:56Z</time>
      </trkpt>
      <trkpt lat="43.42657" lon="6.05301">
        <ele>287.20001220703</ele>
        <time>2012-10-20T13:08:05Z</time>
      </trkpt>
      <trkpt lat="43.4268" lon="6.05337">
        <ele>290.79998779297</ele>
        <time>2012-10-20T13:08:22Z</time>
      </trkpt>
      <trkpt lat="43.42686" lon="6.05339">
        <ele>291.20001220703</ele>
        <time>2012-10-20T13:08:26Z</time>
      </trkpt>
      <trkpt lat="43.42687" lon="6.0534">
        <ele>291.20001220703</ele>
        <time>2012-10-20T13:08:44Z</time>
      </trkpt>
      <trkpt lat="43.42695" lon="6.05343">
        <ele>291.20001220703</ele>
        <time>2012-10-20T13:09:20Z</time>
      </trkpt>
      <trkpt lat="43.42712" lon="6.05341">
        <ele>291.20001220703</ele>
        <time>2012-10-20T13:09:28Z</time>
      </trkpt>
      <trkpt lat="43.42719" lon="6.05352">
        <ele>292.39999389648</ele>
        <time>2012-10-20T13:09:32Z</time>
      </trkpt>
      <trkpt lat="43.42717" lon="6.05374">
        <ele>293.60000610352</ele>
        <time>2012-10-20T13:09:39Z</time>
      </trkpt>
      <trkpt lat="43.42717" lon="6.05383">
        <ele>294.79998779297</ele>
        <time>2012-10-20T13:09:42Z</time>
      </trkpt>
      <trkpt lat="43.42728" lon="6.05415">
        <ele>297.39999389648</ele>
        <time>2012-10-20T13:09:54Z</time>
      </trkpt>
      <trkpt lat="43.42728" lon="6.05416">
        <ele>297.39999389648</ele>
        <time>2012-10-20T13:10:10Z</time>
      </trkpt>
      <trkpt lat="43.4273" lon="6.05419">
        <ele>297.39999389648</ele>
        <time>2012-10-20T13:11:11Z</time>
      </trkpt>
      <trkpt lat="43.42732" lon="6.05435">
        <ele>297.39999389648</ele>
        <time>2012-10-20T13:11:17Z</time>
      </trkpt>
      <trkpt lat="43.42731" lon="6.05452">
        <ele>297.79998779297</ele>
        <time>2012-10-20T13:11:23Z</time>
      </trkpt>
      <trkpt lat="43.42726" lon="6.05463">
        <ele>299.39999389648</ele>
        <time>2012-10-20T13:11:27Z</time>
      </trkpt>
      <trkpt lat="43.42723" lon="6.05473">
        <ele>299.39999389648</ele>
        <time>2012-10-20T13:11:31Z</time>
      </trkpt>
      <trkpt lat="43.42728" lon="6.05524">
        <ele>302.20001220703</ele>
        <time>2012-10-20T13:11:49Z</time>
      </trkpt>
      <trkpt lat="43.42737" lon="6.05562">
        <ele>303.79998779297</ele>
        <time>2012-10-20T13:12:04Z</time>
      </trkpt>
      <trkpt lat="43.42739" lon="6.05566">
        <ele>304.79998779297</ele>
        <time>2012-10-20T13:12:06Z</time>
      </trkpt>
      <trkpt lat="43.42754" lon="6.05587">
        <ele>306</ele>
        <time>2012-10-20T13:12:18Z</time>
      </trkpt>
      <trkpt lat="43.42755" lon="6.05604">
        <ele>307.79998779297</ele>
        <time>2012-10-20T13:12:25Z</time>
      </trkpt>
      <trkpt lat="43.42748" lon="6.05626">
        <ele>310</ele>
        <time>2012-10-20T13:12:36Z</time>
      </trkpt>
      <trkpt lat="43.42742" lon="6.05636">
        <ele>310.39999389648</ele>
        <time>2012-10-20T13:12:43Z</time>
      </trkpt>
      <trkpt lat="43.42729" lon="6.05651">
        <ele>312</ele>
        <time>2012-10-20T13:12:53Z</time>
      </trkpt>
      <trkpt lat="43.42723" lon="6.05666">
        <ele>312</ele>
        <time>2012-10-20T13:13:02Z</time>
      </trkpt>
      <trkpt lat="43.42719" lon="6.05674">
        <ele>312</ele>
        <time>2012-10-20T13:13:07Z</time>
      </trkpt>
      <trkpt lat="43.42708" lon="6.05687">
        <ele>314</ele>
        <time>2012-10-20T13:13:17Z</time>
      </trkpt>
      <trkpt lat="43.42701" lon="6.05717">
        <ele>316.60000610352</ele>
        <time>2012-10-20T13:13:30Z</time>
      </trkpt>
      <trkpt lat="43.42698" lon="6.05731">
        <ele>318.20001220703</ele>
        <time>2012-10-20T13:16:34Z</time>
      </trkpt>
      <trkpt lat="43.42702" lon="6.05735">
        <ele>318.20001220703</ele>
        <time>2012-10-20T13:16:57Z</time>
      </trkpt>
      <trkpt lat="43.42702" lon="6.05735">
        <ele>320.20001220703</ele>
        <time>2012-10-20T13:17:23Z</time>
      </trkpt>
      <trkpt lat="43.42706" lon="6.05737">
        <ele>320.20001220703</ele>
        <time>2012-10-20T13:17:40Z</time>
      </trkpt>
      <trkpt lat="43.42747" lon="6.05741">
        <ele>320.20001220703</ele>
        <time>2012-10-20T13:18:01Z</time>
      </trkpt>
      <trkpt lat="43.42753" lon="6.05741">
        <ele>320.20001220703</ele>
        <time>2012-10-20T13:18:06Z</time>
      </trkpt>
      <trkpt lat="43.42763" lon="6.05731">
        <ele>320.20001220703</ele>
        <time>2012-10-20T13:18:11Z</time>
      </trkpt>
      <trkpt lat="43.42767" lon="6.0573">
        <ele>320.20001220703</ele>
        <time>2012-10-20T13:18:13Z</time>
      </trkpt>
      <trkpt lat="43.42773" lon="6.05731">
        <ele>320.20001220703</ele>
        <time>2012-10-20T13:18:16Z</time>
      </trkpt>
      <trkpt lat="43.42794" lon="6.05744">
        <ele>321</ele>
        <time>2012-10-20T13:18:28Z</time>
      </trkpt>
      <trkpt lat="43.42801" lon="6.05745">
        <ele>322.20001220703</ele>
        <time>2012-10-20T13:18:31Z</time>
      </trkpt>
      <trkpt lat="43.42829" lon="6.05734">
        <ele>322.20001220703</ele>
        <time>2012-10-20T13:18:45Z</time>
      </trkpt>
      <trkpt lat="43.42834" lon="6.05732">
        <ele>322.20001220703</ele>
        <time>2012-10-20T13:18:48Z</time>
      </trkpt>
      <trkpt lat="43.42841" lon="6.05712">
        <ele>322.20001220703</ele>
        <time>2012-10-20T13:19:00Z</time>
      </trkpt>
      <trkpt lat="43.4285" lon="6.05614">
        <ele>322.20001220703</ele>
        <time>2012-10-20T13:20:12Z</time>
      </trkpt>
      <trkpt lat="43.42875" lon="6.05428">
        <ele>322.20001220703</ele>
        <time>2012-10-20T13:20:47Z</time>
      </trkpt>
      <trkpt lat="43.42883" lon="6.05355">
        <ele>323</ele>
        <time>2012-10-20T13:21:04Z</time>
      </trkpt>
      <trkpt lat="43.42891" lon="6.05312">
        <ele>325.20001220703</ele>
        <time>2012-10-20T13:21:20Z</time>
      </trkpt>
      <trkpt lat="43.42892" lon="6.05306">
        <ele>326</ele>
        <time>2012-10-20T13:21:22Z</time>
      </trkpt>
      <trkpt lat="43.42896" lon="6.0527">
        <ele>326.39999389648</ele>
        <time>2012-10-20T13:21:32Z</time>
      </trkpt>
      <trkpt lat="43.42902" lon="6.05192">
        <ele>326.39999389648</ele>
        <time>2012-10-20T13:21:55Z</time>
      </trkpt>
      <trkpt lat="43.42902" lon="6.05188">
        <ele>326.39999389648</ele>
        <time>2012-10-20T13:22:02Z</time>
      </trkpt>
      <trkpt lat="43.42934" lon="6.04948">
        <ele>322.20001220703</ele>
        <time>2012-10-20T13:23:01Z</time>
      </trkpt>
      <trkpt lat="43.42935" lon="6.04912">
        <ele>320.20001220703</ele>
        <time>2012-10-20T13:23:09Z</time>
      </trkpt>
      <trkpt lat="43.42936" lon="6.04912">
        <ele>320.20001220703</ele>
        <time>2012-10-20T13:24:30Z</time>
      </trkpt>
      <trkpt lat="43.42945" lon="6.04889">
        <ele>318.39999389648</ele>
        <time>2012-10-20T13:24:40Z</time>
      </trkpt>
      <trkpt lat="43.42947" lon="6.04874">
        <ele>317.20001220703</ele>
        <time>2012-10-20T13:24:44Z</time>
      </trkpt>
      <trkpt lat="43.42952" lon="6.0487">
        <ele>316.39999389648</ele>
        <time>2012-10-20T13:24:46Z</time>
      </trkpt>
      <trkpt lat="43.42964" lon="6.0486">
        <ele>313.79998779297</ele>
        <time>2012-10-20T13:24:54Z</time>
      </trkpt>
      <trkpt lat="43.42969" lon="6.04854">
        <ele>311.79998779297</ele>
        <time>2012-10-20T13:24:59Z</time>
      </trkpt>
      <trkpt lat="43.42969" lon="6.04853">
        <ele>311.79998779297</ele>
        <time>2012-10-20T13:25:22Z</time>
      </trkpt>
      <trkpt lat="43.42973" lon="6.04851">
        <ele>311.20001220703</ele>
        <time>2012-10-20T13:25:27Z</time>
      </trkpt>
      <trkpt lat="43.42983" lon="6.04838">
        <ele>309.60000610352</ele>
        <time>2012-10-20T13:25:31Z</time>
      </trkpt>
      <trkpt lat="43.42992" lon="6.04813">
        <ele>307</ele>
        <time>2012-10-20T13:25:36Z</time>
      </trkpt>
      <trkpt lat="43.42997" lon="6.04804">
        <ele>305.39999389648</ele>
        <time>2012-10-20T13:25:38Z</time>
      </trkpt>
      <trkpt lat="43.43008" lon="6.04791">
        <ele>304.39999389648</ele>
        <time>2012-10-20T13:25:44Z</time>
      </trkpt>
      <trkpt lat="43.43013" lon="6.04786">
        <ele>303.20001220703</ele>
        <time>2012-10-20T13:25:47Z</time>
      </trkpt>
      <trkpt lat="43.43028" lon="6.04776">
        <ele>300.20001220703</ele>
        <time>2012-10-20T13:25:52Z</time>
      </trkpt>
      <trkpt lat="43.43028" lon="6.04775">
        <ele>297.60000610352</ele>
        <time>2012-10-20T13:25:56Z</time>
      </trkpt>
      <trkpt lat="43.43028" lon="6.04776">
        <ele>297.60000610352</ele>
        <time>2012-10-20T13:26:01Z</time>
      </trkpt>
      <trkpt lat="43.43028" lon="6.04776">
        <ele>297.60000610352</ele>
        <time>2012-10-20T13:26:15Z</time>
      </trkpt>
      <trkpt lat="43.43042" lon="6.04747">
        <ele>297.60000610352</ele>
        <time>2012-10-20T13:27:01Z</time>
      </trkpt>
      <trkpt lat="43.43058" lon="6.0471">
        <ele>298.39999389648</ele>
        <time>2012-10-20T13:27:17Z</time>
      </trkpt>
      <trkpt lat="43.43054" lon="6.0466">
        <ele>301.39999389648</ele>
        <time>2012-10-20T13:27:35Z</time>
      </trkpt>
      <trkpt lat="43.43047" lon="6.04612">
        <ele>301.79998779297</ele>
        <time>2012-10-20T13:27:49Z</time>
      </trkpt>
      <trkpt lat="43.43048" lon="6.04556">
        <ele>303.79998779297</ele>
        <time>2012-10-20T13:28:07Z</time>
      </trkpt>
      <trkpt lat="43.43068" lon="6.0446">
        <ele>306</ele>
        <time>2012-10-20T13:29:06Z</time>
      </trkpt>
      <trkpt lat="43.43078" lon="6.04428">
        <ele>307.20001220703</ele>
        <time>2012-10-20T13:29:15Z</time>
      </trkpt>
      <trkpt lat="43.43079" lon="6.04421">
        <ele>308</ele>
        <time>2012-10-20T13:29:17Z</time>
      </trkpt>
      <trkpt lat="43.43082" lon="6.044">
        <ele>308</ele>
        <time>2012-10-20T13:29:23Z</time>
      </trkpt>
      <trkpt lat="43.43098" lon="6.04373">
        <ele>309.39999389648</ele>
        <time>2012-10-20T13:29:34Z</time>
      </trkpt>
      <trkpt lat="43.43104" lon="6.04337">
        <ele>310.60000610352</ele>
        <time>2012-10-20T13:29:47Z</time>
      </trkpt>
      <trkpt lat="43.43096" lon="6.04279">
        <ele>312.60000610352</ele>
        <time>2012-10-20T13:30:05Z</time>
      </trkpt>
      <trkpt lat="43.43096" lon="6.04275">
        <ele>313</ele>
        <time>2012-10-20T13:30:06Z</time>
      </trkpt>
      <trkpt lat="43.43074" lon="6.04204">
        <ele>314.20001220703</ele>
        <time>2012-10-20T13:30:28Z</time>
      </trkpt>
      <trkpt lat="43.43079" lon="6.04171">
        <ele>314.60000610352</ele>
        <time>2012-10-20T13:30:38Z</time>
      </trkpt>
      <trkpt lat="43.43077" lon="6.04141">
        <ele>316.20001220703</ele>
        <time>2012-10-20T13:30:47Z</time>
      </trkpt>
      <trkpt lat="43.43082" lon="6.04117">
        <ele>316.20001220703</ele>
        <time>2012-10-20T13:30:54Z</time>
      </trkpt>
      <trkpt lat="43.43083" lon="6.04092">
        <ele>316.20001220703</ele>
        <time>2012-10-20T13:31:01Z</time>
      </trkpt>
      <trkpt lat="43.43081" lon="6.04058">
        <ele>318.39999389648</ele>
        <time>2012-10-20T13:31:14Z</time>
      </trkpt>
      <trkpt lat="43.43081" lon="6.04053">
        <ele>318.39999389648</ele>
        <time>2012-10-20T13:31:17Z</time>
      </trkpt>
      <trkpt lat="43.43077" lon="6.04052">
        <ele>318.39999389648</ele>
        <time>2012-10-20T13:31:19Z</time>
      </trkpt>
      <trkpt lat="43.43081" lon="6.04058">
        <ele>318.39999389648</ele>
        <time>2012-10-20T13:32:17Z</time>
      </trkpt>
      <trkpt lat="43.4309" lon="6.04059">
        <ele>318.39999389648</ele>
        <time>2012-10-20T13:32:23Z</time>
      </trkpt>
      <trkpt lat="43.43121" lon="6.04068">
        <ele>323</ele>
        <time>2012-10-20T13:32:45Z</time>
      </trkpt>
      <trkpt lat="43.43137" lon="6.04062">
        <ele>326</ele>
        <time>2012-10-20T13:32:55Z</time>
      </trkpt>
      <trkpt lat="43.43145" lon="6.0405">
        <ele>326.79998779297</ele>
        <time>2012-10-20T13:33:16Z</time>
      </trkpt>
      <trkpt lat="43.43145" lon="6.04049">
        <ele>326.79998779297</ele>
        <time>2012-10-20T13:34:34Z</time>
      </trkpt>
      <trkpt lat="43.43163" lon="6.03983">
        <ele>326.79998779297</ele>
        <time>2012-10-20T13:37:07Z</time>
      </trkpt>
      <trkpt lat="43.43171" lon="6.03967">
        <ele>326.79998779297</ele>
        <time>2012-10-20T13:37:13Z</time>
      </trkpt>
      <trkpt lat="43.43214" lon="6.03973">
        <ele>329.20001220703</ele>
        <time>2012-10-20T13:37:33Z</time>
      </trkpt>
      <trkpt lat="43.43216" lon="6.03973">
        <ele>329.20001220703</ele>
        <time>2012-10-20T13:37:36Z</time>
      </trkpt>
      <trkpt lat="43.43216" lon="6.03973">
        <ele>329.20001220703</ele>
        <time>2012-10-20T13:37:48Z</time>
      </trkpt>
      <trkpt lat="43.43223" lon="6.03974">
        <ele>329.20001220703</ele>
        <time>2012-10-20T13:38:09Z</time>
      </trkpt>
      <trkpt lat="43.43244" lon="6.03988">
        <ele>328.20001220703</ele>
        <time>2012-10-20T13:38:17Z</time>
      </trkpt>
      <trkpt lat="43.43261" lon="6.03988">
        <ele>325.60000610352</ele>
        <time>2012-10-20T13:38:22Z</time>
      </trkpt>
      <trkpt lat="43.43264" lon="6.03991">
        <ele>324.39999389648</ele>
        <time>2012-10-20T13:38:23Z</time>
      </trkpt>
      <trkpt lat="43.43266" lon="6.03994">
        <ele>323.79998779297</ele>
        <time>2012-10-20T13:38:24Z</time>
      </trkpt>
      <trkpt lat="43.43288" lon="6.03999">
        <ele>318.60000610352</ele>
        <time>2012-10-20T13:38:33Z</time>
      </trkpt>
      <trkpt lat="43.43292" lon="6.04003">
        <ele>317.20001220703</ele>
        <time>2012-10-20T13:38:35Z</time>
      </trkpt>
      <trkpt lat="43.43293" lon="6.04003">
        <ele>316.60000610352</ele>
        <time>2012-10-20T13:38:36Z</time>
      </trkpt>
      <trkpt lat="43.43293" lon="6.04004">
        <ele>315.20001220703</ele>
        <time>2012-10-20T13:38:38Z</time>
      </trkpt>
      <trkpt lat="43.43292" lon="6.04007">
        <ele>315.20001220703</ele>
        <time>2012-10-20T13:38:40Z</time>
      </trkpt>
      <trkpt lat="43.43292" lon="6.04007">
        <ele>313.20001220703</ele>
        <time>2012-10-20T13:40:02Z</time>
      </trkpt>
      <trkpt lat="43.43291" lon="6.04008">
        <ele>313.20001220703</ele>
        <time>2012-10-20T13:40:18Z</time>
      </trkpt>
      <trkpt lat="43.43295" lon="6.04021">
        <ele>313.20001220703</ele>
        <time>2012-10-20T13:40:58Z</time>
      </trkpt>
      <trkpt lat="43.43302" lon="6.04084">
        <ele>307.39999389648</ele>
        <time>2012-10-20T13:41:21Z</time>
      </trkpt>
      <trkpt lat="43.43304" lon="6.04108">
        <ele>306</ele>
        <time>2012-10-20T13:41:25Z</time>
      </trkpt>
      <trkpt lat="43.43307" lon="6.04155">
        <ele>302.60000610352</ele>
        <time>2012-10-20T13:41:33Z</time>
      </trkpt>
      <trkpt lat="43.43309" lon="6.04161">
        <ele>302.20001220703</ele>
        <time>2012-10-20T13:41:44Z</time>
      </trkpt>
      <trkpt lat="43.43309" lon="6.04165">
        <ele>302.20001220703</ele>
        <time>2012-10-20T13:41:45Z</time>
      </trkpt>
      <trkpt lat="43.43308" lon="6.04195">
        <ele>302.20001220703</ele>
        <time>2012-10-20T13:41:54Z</time>
      </trkpt>
      <trkpt lat="43.43307" lon="6.04206">
        <ele>302.20001220703</ele>
        <time>2012-10-20T13:41:58Z</time>
      </trkpt>
      <trkpt lat="43.43311" lon="6.04221">
        <ele>301.79998779297</ele>
        <time>2012-10-20T13:42:03Z</time>
      </trkpt>
      <trkpt lat="43.43317" lon="6.04268">
        <ele>296.60000610352</ele>
        <time>2012-10-20T13:42:10Z</time>
      </trkpt>
      <trkpt lat="43.43319" lon="6.04272">
        <ele>295</ele>
        <time>2012-10-20T13:42:12Z</time>
      </trkpt>
      <trkpt lat="43.4332" lon="6.04291">
        <ele>295</ele>
        <time>2012-10-20T13:42:19Z</time>
      </trkpt>
      <trkpt lat="43.4332" lon="6.04292">
        <ele>295</ele>
        <time>2012-10-20T13:42:28Z</time>
      </trkpt>
      <trkpt lat="43.43322" lon="6.04328">
        <ele>295</ele>
        <time>2012-10-20T13:43:10Z</time>
      </trkpt>
      <trkpt lat="43.43327" lon="6.04384">
        <ele>290.39999389648</ele>
        <time>2012-10-20T13:43:24Z</time>
      </trkpt>
      <trkpt lat="43.43327" lon="6.04402">
        <ele>288.39999389648</ele>
        <time>2012-10-20T13:43:33Z</time>
      </trkpt>
      <trkpt lat="43.43327" lon="6.04406">
        <ele>288.39999389648</ele>
        <time>2012-10-20T13:43:43Z</time>
      </trkpt>
      <trkpt lat="43.43328" lon="6.0444">
        <ele>286.79998779297</ele>
        <time>2012-10-20T13:43:50Z</time>
      </trkpt>
      <trkpt lat="43.43333" lon="6.04479">
        <ele>286.39999389648</ele>
        <time>2012-10-20T13:44:04Z</time>
      </trkpt>
      <trkpt lat="43.43333" lon="6.04479">
        <ele>288.39999389648</ele>
        <time>2012-10-20T13:44:38Z</time>
      </trkpt>
      <trkpt lat="43.43334" lon="6.0448">
        <ele>288.39999389648</ele>
        <time>2012-10-20T13:45:24Z</time>
      </trkpt>
      <trkpt lat="43.43335" lon="6.04483">
        <ele>288.39999389648</ele>
        <time>2012-10-20T13:45:30Z</time>
      </trkpt>
      <trkpt lat="43.43333" lon="6.04524">
        <ele>288.39999389648</ele>
        <time>2012-10-20T13:45:39Z</time>
      </trkpt>
      <trkpt lat="43.43336" lon="6.04536">
        <ele>287.79998779297</ele>
        <time>2012-10-20T13:45:41Z</time>
      </trkpt>
      <trkpt lat="43.43344" lon="6.04558">
        <ele>285.20001220703</ele>
        <time>2012-10-20T13:45:46Z</time>
      </trkpt>
      <trkpt lat="43.43349" lon="6.04614">
        <ele>278.60000610352</ele>
        <time>2012-10-20T13:45:56Z</time>
      </trkpt>
      <trkpt lat="43.4335" lon="6.04646">
        <ele>275.20001220703</ele>
        <time>2012-10-20T13:46:03Z</time>
      </trkpt>
      <trkpt lat="43.43352" lon="6.04683">
        <ele>271.79998779297</ele>
        <time>2012-10-20T13:46:10Z</time>
      </trkpt>
      <trkpt lat="43.43352" lon="6.04685">
        <ele>271.39999389648</ele>
        <time>2012-10-20T13:46:12Z</time>
      </trkpt>
      <trkpt lat="43.43353" lon="6.04685">
        <ele>269.79998779297</ele>
        <time>2012-10-20T13:47:00Z</time>
      </trkpt>
      <trkpt lat="43.43356" lon="6.04706">
        <ele>269.79998779297</ele>
        <time>2012-10-20T13:47:06Z</time>
      </trkpt>
      <trkpt lat="43.43355" lon="6.04762">
        <ele>267.60000610352</ele>
        <time>2012-10-20T13:47:23Z</time>
      </trkpt>
      <trkpt lat="43.43359" lon="6.04778">
        <ele>267.60000610352</ele>
        <time>2012-10-20T13:48:11Z</time>
      </trkpt>
      <trkpt lat="43.43359" lon="6.04779">
        <ele>267.60000610352</ele>
        <time>2012-10-20T13:48:24Z</time>
      </trkpt>
      <trkpt lat="43.4336" lon="6.04784">
        <ele>267.60000610352</ele>
        <time>2012-10-20T13:48:26Z</time>
      </trkpt>
      <trkpt lat="43.43365" lon="6.04818">
        <ele>266.20001220703</ele>
        <time>2012-10-20T13:48:31Z</time>
      </trkpt>
      <trkpt lat="43.43365" lon="6.04854">
        <ele>264.79998779297</ele>
        <time>2012-10-20T13:48:36Z</time>
      </trkpt>
      <trkpt lat="43.43362" lon="6.04865">
        <ele>264</ele>
        <time>2012-10-20T13:48:38Z</time>
      </trkpt>
      <trkpt lat="43.43362" lon="6.0487">
        <ele>263.39999389648</ele>
        <time>2012-10-20T13:48:39Z</time>
      </trkpt>
      <trkpt lat="43.43374" lon="6.04933">
        <ele>262.60000610352</ele>
        <time>2012-10-20T13:48:53Z</time>
      </trkpt>
      <trkpt lat="43.43382" lon="6.04978">
        <ele>260.79998779297</ele>
        <time>2012-10-20T13:49:04Z</time>
      </trkpt>
      <trkpt lat="43.43386" lon="6.05065">
        <ele>263.20001220703</ele>
        <time>2012-10-20T13:49:30Z</time>
      </trkpt>
      <trkpt lat="43.43392" lon="6.05107">
        <ele>263.20001220703</ele>
        <time>2012-10-20T13:49:51Z</time>
      </trkpt>
      <trkpt lat="43.43394" lon="6.05111">
        <ele>263.20001220703</ele>
        <time>2012-10-20T13:50:57Z</time>
      </trkpt>
      <trkpt lat="43.43394" lon="6.05154">
        <ele>262.60000610352</ele>
        <time>2012-10-20T13:51:09Z</time>
      </trkpt>
      <trkpt lat="43.43395" lon="6.05183">
        <ele>260</ele>
        <time>2012-10-20T13:51:17Z</time>
      </trkpt>
      <trkpt lat="43.43404" lon="6.05229">
        <ele>256.60000610352</ele>
        <time>2012-10-20T13:51:30Z</time>
      </trkpt>
      <trkpt lat="43.43402" lon="6.05244">
        <ele>256.60000610352</ele>
        <time>2012-10-20T13:52:09Z</time>
      </trkpt>
      <trkpt lat="43.43402" lon="6.05246">
        <ele>256.60000610352</ele>
        <time>2012-10-20T13:52:10Z</time>
      </trkpt>
      <trkpt lat="43.4341" lon="6.05308">
        <ele>254.39999389648</ele>
        <time>2012-10-20T13:52:28Z</time>
      </trkpt>
      <trkpt lat="43.4341" lon="6.05331">
        <ele>254.39999389648</ele>
        <time>2012-10-20T13:52:37Z</time>
      </trkpt>
      <trkpt lat="43.43412" lon="6.05337">
        <ele>254.39999389648</ele>
        <time>2012-10-20T13:52:58Z</time>
      </trkpt>
      <trkpt lat="43.43412" lon="6.05339">
        <ele>254.39999389648</ele>
        <time>2012-10-20T13:53:17Z</time>
      </trkpt>
      <trkpt lat="43.43417" lon="6.05358">
        <ele>253.39999389648</ele>
        <time>2012-10-20T13:53:23Z</time>
      </trkpt>
      <trkpt lat="43.43436" lon="6.05352">
        <ele>250.80000305176</ele>
        <time>2012-10-20T13:53:31Z</time>
      </trkpt>
      <trkpt lat="43.43453" lon="6.05338">
        <ele>249</ele>
        <time>2012-10-20T13:53:35Z</time>
      </trkpt>
      <trkpt lat="43.43481" lon="6.05344">
        <ele>246.39999389648</ele>
        <time>2012-10-20T13:53:40Z</time>
      </trkpt>
      <trkpt lat="43.43507" lon="6.05353">
        <ele>245.80000305176</ele>
        <time>2012-10-20T13:53:45Z</time>
      </trkpt>
      <trkpt lat="43.43515" lon="6.05349">
        <ele>245.80000305176</ele>
        <time>2012-10-20T13:53:47Z</time>
      </trkpt>
      <trkpt lat="43.43533" lon="6.05326">
        <ele>243.60000610352</ele>
        <time>2012-10-20T13:53:52Z</time>
      </trkpt>
      <trkpt lat="43.43541" lon="6.05324">
        <ele>243.60000610352</ele>
        <time>2012-10-20T13:53:55Z</time>
      </trkpt>
      <trkpt lat="43.43543" lon="6.05326">
        <ele>243.60000610352</ele>
        <time>2012-10-20T13:53:56Z</time>
      </trkpt>
      <trkpt lat="43.43559" lon="6.05332">
        <ele>243.60000610352</ele>
        <time>2012-10-20T13:54:04Z</time>
      </trkpt>
      <trkpt lat="43.43569" lon="6.05341">
        <ele>243.60000610352</ele>
        <time>2012-10-20T13:54:14Z</time>
      </trkpt>
      <trkpt lat="43.43571" lon="6.05346">
        <ele>243.60000610352</ele>
        <time>2012-10-20T13:55:49Z</time>
      </trkpt>
      <trkpt lat="43.43571" lon="6.05348">
        <ele>243.60000610352</ele>
        <time>2012-10-20T13:56:13Z</time>
      </trkpt>
      <trkpt lat="43.43573" lon="6.05356">
        <ele>244.39999389648</ele>
        <time>2012-10-20T13:56:17Z</time>
      </trkpt>
      <trkpt lat="43.43573" lon="6.05379">
        <ele>245.60000610352</ele>
        <time>2012-10-20T13:56:25Z</time>
      </trkpt>
      <trkpt lat="43.4357" lon="6.05401">
        <ele>245.60000610352</ele>
        <time>2012-10-20T13:56:31Z</time>
      </trkpt>
      <trkpt lat="43.43561" lon="6.05456">
        <ele>247.80000305176</ele>
        <time>2012-10-20T13:56:46Z</time>
      </trkpt>
      <trkpt lat="43.4356" lon="6.05512">
        <ele>250</ele>
        <time>2012-10-20T13:57:04Z</time>
      </trkpt>
      <trkpt lat="43.43565" lon="6.05544">
        <ele>250</ele>
        <time>2012-10-20T13:57:18Z</time>
      </trkpt>
      <trkpt lat="43.43567" lon="6.0555">
        <ele>250</ele>
        <time>2012-10-20T13:57:23Z</time>
      </trkpt>
      <trkpt lat="43.43597" lon="6.05627">
        <ele>250</ele>
        <time>2012-10-20T13:58:13Z</time>
      </trkpt>
      <trkpt lat="43.43607" lon="6.05642">
        <ele>250</ele>
        <time>2012-10-20T13:58:18Z</time>
      </trkpt>
      <trkpt lat="43.43623" lon="6.05647">
        <ele>250</ele>
        <time>2012-10-20T13:58:25Z</time>
      </trkpt>
      <trkpt lat="43.43634" lon="6.05645">
        <ele>250</ele>
        <time>2012-10-20T13:58:30Z</time>
      </trkpt>
      <trkpt lat="43.43646" lon="6.05631">
        <ele>250</ele>
        <time>2012-10-20T13:58:36Z</time>
      </trkpt>
      <trkpt lat="43.43665" lon="6.05608">
        <ele>252.19999694824</ele>
        <time>2012-10-20T13:58:47Z</time>
      </trkpt>
      <trkpt lat="43.4367" lon="6.05593">
        <ele>253.60000610352</ele>
        <time>2012-10-20T13:58:52Z</time>
      </trkpt>
      <trkpt lat="43.43671" lon="6.0559">
        <ele>254</ele>
        <time>2012-10-20T13:58:53Z</time>
      </trkpt>
      <trkpt lat="43.43683" lon="6.05548">
        <ele>258.20001220703</ele>
        <time>2012-10-20T13:59:15Z</time>
      </trkpt>
      <trkpt lat="43.43683" lon="6.05528">
        <ele>259.39999389648</ele>
        <time>2012-10-20T13:59:24Z</time>
      </trkpt>
      <trkpt lat="43.43681" lon="6.05523">
        <ele>260.79998779297</ele>
        <time>2012-10-20T13:59:27Z</time>
      </trkpt>
      <trkpt lat="43.43672" lon="6.05516">
        <ele>261.20001220703</ele>
        <time>2012-10-20T13:59:34Z</time>
      </trkpt>
      <trkpt lat="43.43654" lon="6.0551">
        <ele>263.39999389648</ele>
        <time>2012-10-20T13:59:46Z</time>
      </trkpt>
      <trkpt lat="43.43653" lon="6.05505">
        <ele>265</ele>
        <time>2012-10-20T13:59:50Z</time>
      </trkpt>
      <trkpt lat="43.43653" lon="6.05503">
        <ele>265</ele>
        <time>2012-10-20T13:59:51Z</time>
      </trkpt>
      <trkpt lat="43.43674" lon="6.05425">
        <ele>265.39999389648</ele>
        <time>2012-10-20T14:00:27Z</time>
      </trkpt>
      <trkpt lat="43.43674" lon="6.05423">
        <ele>266.20001220703</ele>
        <time>2012-10-20T14:00:29Z</time>
      </trkpt>
      <trkpt lat="43.43674" lon="6.05423">
        <ele>267</ele>
        <time>2012-10-20T14:00:48Z</time>
      </trkpt>
      <trkpt lat="43.43678" lon="6.05421">
        <ele>267</ele>
        <time>2012-10-20T14:01:28Z</time>
      </trkpt>
      <trkpt lat="43.43681" lon="6.0542">
        <ele>267</ele>
        <time>2012-10-20T14:01:29Z</time>
      </trkpt>
      <trkpt lat="43.43716" lon="6.05429">
        <ele>264.79998779297</ele>
        <time>2012-10-20T14:01:37Z</time>
      </trkpt>
      <trkpt lat="43.43734" lon="6.05406">
        <ele>264.79998779297</ele>
        <time>2012-10-20T14:01:43Z</time>
      </trkpt>
      <trkpt lat="43.43742" lon="6.05348">
        <ele>262.79998779297</ele>
        <time>2012-10-20T14:01:53Z</time>
      </trkpt>
      <trkpt lat="43.43738" lon="6.05331">
        <ele>262.79998779297</ele>
        <time>2012-10-20T14:01:58Z</time>
      </trkpt>
      <trkpt lat="43.43737" lon="6.05314">
        <ele>262.79998779297</ele>
        <time>2012-10-20T14:02:03Z</time>
      </trkpt>
      <trkpt lat="43.43736" lon="6.05273">
        <ele>262.79998779297</ele>
        <time>2012-10-20T14:02:21Z</time>
      </trkpt>
      <trkpt lat="43.43798" lon="6.05271">
        <ele>262.79998779297</ele>
        <time>2012-10-20T14:02:43Z</time>
      </trkpt>
      <trkpt lat="43.43801" lon="6.05272">
        <ele>262.79998779297</ele>
        <time>2012-10-20T14:02:44Z</time>
      </trkpt>
      <trkpt lat="43.43817" lon="6.0528">
        <ele>262.79998779297</ele>
        <time>2012-10-20T14:02:50Z</time>
      </trkpt>
      <trkpt lat="43.43835" lon="6.0528">
        <ele>262.79998779297</ele>
        <time>2012-10-20T14:02:57Z</time>
      </trkpt>
      <trkpt lat="43.43855" lon="6.05194">
        <ele>265</ele>
        <time>2012-10-20T14:03:17Z</time>
      </trkpt>
      <trkpt lat="43.43863" lon="6.05185">
        <ele>265</ele>
        <time>2012-10-20T14:03:22Z</time>
      </trkpt>
      <trkpt lat="43.43874" lon="6.05183">
        <ele>265</ele>
        <time>2012-10-20T14:03:28Z</time>
      </trkpt>
      <trkpt lat="43.43909" lon="6.05186">
        <ele>267</ele>
        <time>2012-10-20T14:03:40Z</time>
      </trkpt>
      <trkpt lat="43.43934" lon="6.05189">
        <ele>267</ele>
        <time>2012-10-20T14:03:50Z</time>
      </trkpt>
      <trkpt lat="43.43962" lon="6.05183">
        <ele>269</ele>
        <time>2012-10-20T14:04:02Z</time>
      </trkpt>
      <trkpt lat="43.44051" lon="6.05187">
        <ele>271</ele>
        <time>2012-10-20T14:04:38Z</time>
      </trkpt>
      <trkpt lat="43.44074" lon="6.05189">
        <ele>271</ele>
        <time>2012-10-20T14:04:46Z</time>
      </trkpt>
      <trkpt lat="43.44085" lon="6.05197">
        <ele>271.39999389648</ele>
        <time>2012-10-20T14:04:51Z</time>
      </trkpt>
      <trkpt lat="43.44088" lon="6.05207">
        <ele>272.79998779297</ele>
        <time>2012-10-20T14:04:54Z</time>
      </trkpt>
      <trkpt lat="43.44088" lon="6.05216">
        <ele>274.79998779297</ele>
        <time>2012-10-20T14:04:59Z</time>
      </trkpt>
      <trkpt lat="43.44088" lon="6.05218">
        <ele>275.20001220703</ele>
        <time>2012-10-20T14:05:09Z</time>
      </trkpt>
      <trkpt lat="43.44089" lon="6.05222">
        <ele>275.20001220703</ele>
        <time>2012-10-20T14:05:16Z</time>
      </trkpt>
      <trkpt lat="43.44084" lon="6.05281">
        <ele>275.20001220703</ele>
        <time>2012-10-20T14:05:27Z</time>
      </trkpt>
      <trkpt lat="43.44077" lon="6.05345">
        <ele>275.20001220703</ele>
        <time>2012-10-20T14:05:40Z</time>
      </trkpt>
      <trkpt lat="43.44065" lon="6.0542">
        <ele>277.20001220703</ele>
        <time>2012-10-20T14:05:57Z</time>
      </trkpt>
      <trkpt lat="43.44058" lon="6.05487">
        <ele>277.20001220703</ele>
        <time>2012-10-20T14:06:10Z</time>
      </trkpt>
      <trkpt lat="43.44045" lon="6.05619">
        <ele>275.20001220703</ele>
        <time>2012-10-20T14:06:33Z</time>
      </trkpt>
      <trkpt lat="43.44044" lon="6.05657">
        <ele>273.39999389648</ele>
        <time>2012-10-20T14:06:41Z</time>
      </trkpt>
      <trkpt lat="43.44047" lon="6.05665">
        <ele>272.79998779297</ele>
        <time>2012-10-20T14:06:43Z</time>
      </trkpt>
      <trkpt lat="43.44051" lon="6.05667">
        <ele>272.79998779297</ele>
        <time>2012-10-20T14:06:44Z</time>
      </trkpt>
      <trkpt lat="43.4409" lon="6.05661">
        <ele>272.79998779297</ele>
        <time>2012-10-20T14:06:59Z</time>
      </trkpt>
      <trkpt lat="43.44135" lon="6.05658">
        <ele>274.60000610352</ele>
        <time>2012-10-20T14:07:17Z</time>
      </trkpt>
      <trkpt lat="43.44136" lon="6.05658">
        <ele>275</ele>
        <time>2012-10-20T14:07:18Z</time>
      </trkpt>
      <trkpt lat="43.44212" lon="6.05632">
        <ele>277.20001220703</ele>
        <time>2012-10-20T14:07:53Z</time>
      </trkpt>
      <trkpt lat="43.44229" lon="6.05628">
        <ele>279.20001220703</ele>
        <time>2012-10-20T14:08:01Z</time>
      </trkpt>
      <trkpt lat="43.44264" lon="6.05623">
        <ele>280.79998779297</ele>
        <time>2012-10-20T14:08:18Z</time>
      </trkpt>
      <trkpt lat="43.44277" lon="6.05619">
        <ele>283</ele>
        <time>2012-10-20T14:08:26Z</time>
      </trkpt>
      <trkpt lat="43.44319" lon="6.05607">
        <ele>286.60000610352</ele>
        <time>2012-10-20T14:08:53Z</time>
      </trkpt>
      <trkpt lat="43.44364" lon="6.05603">
        <ele>291.60000610352</ele>
        <time>2012-10-20T14:09:27Z</time>
      </trkpt>
      <trkpt lat="43.44375" lon="6.05607">
        <ele>293.60000610352</ele>
        <time>2012-10-20T14:09:36Z</time>
      </trkpt>
      <trkpt lat="43.44402" lon="6.05606">
        <ele>295.79998779297</ele>
        <time>2012-10-20T14:09:56Z</time>
      </trkpt>
      <trkpt lat="43.44407" lon="6.05602">
        <ele>296.60000610352</ele>
        <time>2012-10-20T14:10:01Z</time>
      </trkpt>
      <trkpt lat="43.44422" lon="6.0557">
        <ele>302</ele>
        <time>2012-10-20T14:10:23Z</time>
      </trkpt>
      <trkpt lat="43.44443" lon="6.05508">
        <ele>308.39999389648</ele>
        <time>2012-10-20T14:11:04Z</time>
      </trkpt>
      <trkpt lat="43.4446" lon="6.05443">
        <ele>317.39999389648</ele>
        <time>2012-10-20T14:11:44Z</time>
      </trkpt>
      <trkpt lat="43.44461" lon="6.05425">
        <ele>319.60000610352</ele>
        <time>2012-10-20T14:11:55Z</time>
      </trkpt>
      <trkpt lat="43.44462" lon="6.05422">
        <ele>319.60000610352</ele>
        <time>2012-10-20T14:16:36Z</time>
      </trkpt>
      <trkpt lat="43.44462" lon="6.05422">
        <ele>321.60000610352</ele>
        <time>2012-10-20T14:17:03Z</time>
      </trkpt>
      <trkpt lat="43.44462" lon="6.0542">
        <ele>321.60000610352</ele>
        <time>2012-10-20T14:17:28Z</time>
      </trkpt>
      <trkpt lat="43.44491" lon="6.05359">
        <ele>323.60000610352</ele>
        <time>2012-10-20T14:17:58Z</time>
      </trkpt>
      <trkpt lat="43.44534" lon="6.05285">
        <ele>325.60000610352</ele>
        <time>2012-10-20T14:18:35Z</time>
      </trkpt>
      <trkpt lat="43.44584" lon="6.05192">
        <ele>325.60000610352</ele>
        <time>2012-10-20T14:19:57Z</time>
      </trkpt>
      <trkpt lat="43.44591" lon="6.05183">
        <ele>325.60000610352</ele>
        <time>2012-10-20T14:20:02Z</time>
      </trkpt>
      <trkpt lat="43.44626" lon="6.05162">
        <ele>327.79998779297</ele>
        <time>2012-10-20T14:20:21Z</time>
      </trkpt>
      <trkpt lat="43.44638" lon="6.05158">
        <ele>327.79998779297</ele>
        <time>2012-10-20T14:20:29Z</time>
      </trkpt>
      <trkpt lat="43.44676" lon="6.05138">
        <ele>327.79998779297</ele>
        <time>2012-10-20T14:21:23Z</time>
      </trkpt>
      <trkpt lat="43.44684" lon="6.05136">
        <ele>327.79998779297</ele>
        <time>2012-10-20T14:21:28Z</time>
      </trkpt>
      <trkpt lat="43.44703" lon="6.05147">
        <ele>329.39999389648</ele>
        <time>2012-10-20T14:21:40Z</time>
      </trkpt>
      <trkpt lat="43.44749" lon="6.05174">
        <ele>332</ele>
        <time>2012-10-20T14:22:09Z</time>
      </trkpt>
      <trkpt lat="43.44763" lon="6.0519">
        <ele>334</ele>
        <time>2012-10-20T14:22:21Z</time>
      </trkpt>
      <trkpt lat="43.44765" lon="6.05192">
        <ele>334</ele>
        <time>2012-10-20T14:22:23Z</time>
      </trkpt>
      <trkpt lat="43.44765" lon="6.05193">
        <ele>336.20001220703</ele>
        <time>2012-10-20T14:22:43Z</time>
      </trkpt>
      <trkpt lat="43.44766" lon="6.05194">
        <ele>336.20001220703</ele>
        <time>2012-10-20T14:24:39Z</time>
      </trkpt>
      <trkpt lat="43.44775" lon="6.05213">
        <ele>336.60000610352</ele>
        <time>2012-10-20T14:24:59Z</time>
      </trkpt>
      <trkpt lat="43.44776" lon="6.05214">
        <ele>338.39999389648</ele>
        <time>2012-10-20T14:25:07Z</time>
      </trkpt>
      <trkpt lat="43.44779" lon="6.05222">
        <ele>338.39999389648</ele>
        <time>2012-10-20T14:25:12Z</time>
      </trkpt>
      <trkpt lat="43.44783" lon="6.0525">
        <ele>340.60000610352</ele>
        <time>2012-10-20T14:25:24Z</time>
      </trkpt>
      <trkpt lat="43.44766" lon="6.05286">
        <ele>342.20001220703</ele>
        <time>2012-10-20T14:25:44Z</time>
      </trkpt>
      <trkpt lat="43.44765" lon="6.05289">
        <ele>342.60000610352</ele>
        <time>2012-10-20T14:25:55Z</time>
      </trkpt>
      <trkpt lat="43.44765" lon="6.05319">
        <ele>342.60000610352</ele>
        <time>2012-10-20T14:26:10Z</time>
      </trkpt>
      <trkpt lat="43.44764" lon="6.05332">
        <ele>343</ele>
        <time>2012-10-20T14:26:16Z</time>
      </trkpt>
      <trkpt lat="43.44756" lon="6.0538">
        <ele>346.79998779297</ele>
        <time>2012-10-20T14:26:38Z</time>
      </trkpt>
      <trkpt lat="43.44758" lon="6.05404">
        <ele>348.79998779297</ele>
        <time>2012-10-20T14:26:48Z</time>
      </trkpt>
      <trkpt lat="43.4476" lon="6.05412">
        <ele>348.79998779297</ele>
        <time>2012-10-20T14:26:53Z</time>
      </trkpt>
      <trkpt lat="43.4477" lon="6.05413">
        <ele>348.79998779297</ele>
        <time>2012-10-20T14:27:00Z</time>
      </trkpt>
      <trkpt lat="43.44775" lon="6.05419">
        <ele>348.79998779297</ele>
        <time>2012-10-20T14:27:04Z</time>
      </trkpt>
      <trkpt lat="43.44777" lon="6.05444">
        <ele>351</ele>
        <time>2012-10-20T14:27:15Z</time>
      </trkpt>
      <trkpt lat="43.44788" lon="6.05466">
        <ele>353</ele>
        <time>2012-10-20T14:27:27Z</time>
      </trkpt>
      <trkpt lat="43.44807" lon="6.05477">
        <ele>355</ele>
        <time>2012-10-20T14:27:39Z</time>
      </trkpt>
      <trkpt lat="43.44818" lon="6.05479">
        <ele>356.20001220703</ele>
        <time>2012-10-20T14:27:48Z</time>
      </trkpt>
      <trkpt lat="43.4483" lon="6.05486">
        <ele>357.20001220703</ele>
        <time>2012-10-20T14:27:56Z</time>
      </trkpt>
      <trkpt lat="43.44844" lon="6.05501">
        <ele>359.20001220703</ele>
        <time>2012-10-20T14:28:06Z</time>
      </trkpt>
      <trkpt lat="43.44846" lon="6.05519">
        <ele>361.20001220703</ele>
        <time>2012-10-20T14:28:15Z</time>
      </trkpt>
      <trkpt lat="43.44838" lon="6.05535">
        <ele>361.60000610352</ele>
        <time>2012-10-20T14:28:25Z</time>
      </trkpt>
      <trkpt lat="43.44838" lon="6.05553">
        <ele>363.20001220703</ele>
        <time>2012-10-20T14:28:44Z</time>
      </trkpt>
      <trkpt lat="43.44838" lon="6.05554">
        <ele>363.20001220703</ele>
        <time>2012-10-20T14:30:57Z</time>
      </trkpt>
      <trkpt lat="43.44831" lon="6.05548">
        <ele>363.20001220703</ele>
        <time>2012-10-20T14:31:36Z</time>
      </trkpt>
      <trkpt lat="43.4482" lon="6.05545">
        <ele>363.20001220703</ele>
        <time>2012-10-20T14:31:41Z</time>
      </trkpt>
      <trkpt lat="43.4481" lon="6.05542">
        <ele>363.20001220703</ele>
        <time>2012-10-20T14:31:47Z</time>
      </trkpt>
      <trkpt lat="43.44789" lon="6.05526">
        <ele>363.20001220703</ele>
        <time>2012-10-20T14:31:53Z</time>
      </trkpt>
      <trkpt lat="43.44769" lon="6.05505">
        <ele>362.39999389648</ele>
        <time>2012-10-20T14:31:58Z</time>
      </trkpt>
      <trkpt lat="43.44756" lon="6.05485">
        <ele>361</ele>
        <time>2012-10-20T14:32:02Z</time>
      </trkpt>
      <trkpt lat="43.44749" lon="6.05442">
        <ele>359</ele>
        <time>2012-10-20T14:32:07Z</time>
      </trkpt>
      <trkpt lat="43.44749" lon="6.05389">
        <ele>355</ele>
        <time>2012-10-20T14:32:12Z</time>
      </trkpt>
      <trkpt lat="43.44754" lon="6.05329">
        <ele>351.20001220703</ele>
        <time>2012-10-20T14:32:18Z</time>
      </trkpt>
      <trkpt lat="43.44755" lon="6.05321">
        <ele>350.39999389648</ele>
        <time>2012-10-20T14:32:19Z</time>
      </trkpt>
      <trkpt lat="43.44757" lon="6.0524">
        <ele>343.79998779297</ele>
        <time>2012-10-20T14:32:30Z</time>
      </trkpt>
      <trkpt lat="43.44748" lon="6.05214">
        <ele>341.39999389648</ele>
        <time>2012-10-20T14:32:35Z</time>
      </trkpt>
      <trkpt lat="43.44737" lon="6.05205">
        <ele>340.79998779297</ele>
        <time>2012-10-20T14:32:39Z</time>
      </trkpt>
      <trkpt lat="43.44728" lon="6.05196">
        <ele>339.39999389648</ele>
        <time>2012-10-20T14:32:42Z</time>
      </trkpt>
      <trkpt lat="43.44704" lon="6.05184">
        <ele>336.79998779297</ele>
        <time>2012-10-20T14:32:49Z</time>
      </trkpt>
      <trkpt lat="43.44664" lon="6.05179">
        <ele>334.60000610352</ele>
        <time>2012-10-20T14:32:58Z</time>
      </trkpt>
      <trkpt lat="43.4462" lon="6.05181">
        <ele>332</ele>
        <time>2012-10-20T14:33:07Z</time>
      </trkpt>
      <trkpt lat="43.44595" lon="6.05189">
        <ele>328.79998779297</ele>
        <time>2012-10-20T14:33:14Z</time>
      </trkpt>
      <trkpt lat="43.44579" lon="6.05205">
        <ele>326.60000610352</ele>
        <time>2012-10-20T14:33:20Z</time>
      </trkpt>
      <trkpt lat="43.44576" lon="6.0521">
        <ele>325.79998779297</ele>
        <time>2012-10-20T14:33:22Z</time>
      </trkpt>
      <trkpt lat="43.44574" lon="6.05213">
        <ele>325.79998779297</ele>
        <time>2012-10-20T14:33:25Z</time>
      </trkpt>
      <trkpt lat="43.44574" lon="6.05215">
        <ele>325.79998779297</ele>
        <time>2012-10-20T14:33:42Z</time>
      </trkpt>
      <trkpt lat="43.44574" lon="6.05215">
        <ele>325.79998779297</ele>
        <time>2012-10-20T14:34:07Z</time>
      </trkpt>
      <trkpt lat="43.44579" lon="6.052">
        <ele>325.79998779297</ele>
        <time>2012-10-20T14:34:17Z</time>
      </trkpt>
      <trkpt lat="43.44582" lon="6.05198">
        <ele>325.79998779297</ele>
        <time>2012-10-20T14:34:21Z</time>
      </trkpt>
      <trkpt lat="43.44583" lon="6.052">
        <ele>325.79998779297</ele>
        <time>2012-10-20T14:34:23Z</time>
      </trkpt>
      <trkpt lat="43.44574" lon="6.05218">
        <ele>325.79998779297</ele>
        <time>2012-10-20T14:34:37Z</time>
      </trkpt>
      <trkpt lat="43.4451" lon="6.05326">
        <ele>325.79998779297</ele>
        <time>2012-10-20T14:35:15Z</time>
      </trkpt>
      <trkpt lat="43.4449" lon="6.05359">
        <ele>323.79998779297</ele>
        <time>2012-10-20T14:35:22Z</time>
      </trkpt>
      <trkpt lat="43.44482" lon="6.05377">
        <ele>323.79998779297</ele>
        <time>2012-10-20T14:35:25Z</time>
      </trkpt>
      <trkpt lat="43.44463" lon="6.05426">
        <ele>323</ele>
        <time>2012-10-20T14:35:32Z</time>
      </trkpt>
      <trkpt lat="43.44445" lon="6.05492">
        <ele>318.20001220703</ele>
        <time>2012-10-20T14:35:40Z</time>
      </trkpt>
      <trkpt lat="43.44441" lon="6.05517">
        <ele>315.39999389648</ele>
        <time>2012-10-20T14:35:43Z</time>
      </trkpt>
      <trkpt lat="43.44425" lon="6.05566">
        <ele>310.79998779297</ele>
        <time>2012-10-20T14:35:48Z</time>
      </trkpt>
      <trkpt lat="43.44416" lon="6.05585">
        <ele>309</ele>
        <time>2012-10-20T14:35:50Z</time>
      </trkpt>
      <trkpt lat="43.44403" lon="6.05606">
        <ele>304.60000610352</ele>
        <time>2012-10-20T14:35:53Z</time>
      </trkpt>
      <trkpt lat="43.44397" lon="6.05609">
        <ele>303.20001220703</ele>
        <time>2012-10-20T14:35:54Z</time>
      </trkpt>
      <trkpt lat="43.44382" lon="6.05608">
        <ele>300.79998779297</ele>
        <time>2012-10-20T14:35:56Z</time>
      </trkpt>
      <trkpt lat="43.44365" lon="6.05605">
        <ele>299</ele>
        <time>2012-10-20T14:35:58Z</time>
      </trkpt>
      <trkpt lat="43.44346" lon="6.05606">
        <ele>297.20001220703</ele>
        <time>2012-10-20T14:36:00Z</time>
      </trkpt>
      <trkpt lat="43.44315" lon="6.05609">
        <ele>294.60000610352</ele>
        <time>2012-10-20T14:36:03Z</time>
      </trkpt>
      <trkpt lat="43.44305" lon="6.05611">
        <ele>293.60000610352</ele>
        <time>2012-10-20T14:36:04Z</time>
      </trkpt>
      <trkpt lat="43.44253" lon="6.05626">
        <ele>290</ele>
        <time>2012-10-20T14:36:09Z</time>
      </trkpt>
      <trkpt lat="43.44188" lon="6.05641">
        <ele>284.79998779297</ele>
        <time>2012-10-20T14:36:15Z</time>
      </trkpt>
      <trkpt lat="43.44141" lon="6.05659">
        <ele>280.60000610352</ele>
        <time>2012-10-20T14:36:20Z</time>
      </trkpt>
      <trkpt lat="43.44128" lon="6.05663">
        <ele>280</ele>
        <time>2012-10-20T14:36:23Z</time>
      </trkpt>
      <trkpt lat="43.44127" lon="6.05664">
        <ele>279.20001220703</ele>
        <time>2012-10-20T14:36:25Z</time>
      </trkpt>
      <trkpt lat="43.44127" lon="6.05664">
        <ele>278.60000610352</ele>
        <time>2012-10-20T14:36:26Z</time>
      </trkpt>
      <trkpt lat="43.44127" lon="6.05664">
        <ele>278.20001220703</ele>
        <time>2012-10-20T14:36:50Z</time>
      </trkpt>
      <trkpt lat="43.4413" lon="6.05663">
        <ele>278.20001220703</ele>
        <time>2012-10-20T14:42:15Z</time>
      </trkpt>
      <trkpt lat="43.4413" lon="6.05664">
        <ele>278.20001220703</ele>
        <time>2012-10-20T14:42:25Z</time>
      </trkpt>
      <trkpt lat="43.44134" lon="6.05678">
        <ele>277.39999389648</ele>
        <time>2012-10-20T14:42:30Z</time>
      </trkpt>
      <trkpt lat="43.44135" lon="6.05756">
        <ele>276</ele>
        <time>2012-10-20T14:42:43Z</time>
      </trkpt>
      <trkpt lat="43.44131" lon="6.05795">
        <ele>276</ele>
        <time>2012-10-20T14:42:49Z</time>
      </trkpt>
      <trkpt lat="43.44136" lon="6.05822">
        <ele>276</ele>
        <time>2012-10-20T14:42:53Z</time>
      </trkpt>
      <trkpt lat="43.44162" lon="6.05877">
        <ele>273.79998779297</ele>
        <time>2012-10-20T14:43:02Z</time>
      </trkpt>
      <trkpt lat="43.44203" lon="6.05981">
        <ele>271.79998779297</ele>
        <time>2012-10-20T14:43:19Z</time>
      </trkpt>
      <trkpt lat="43.44207" lon="6.05994">
        <ele>271.79998779297</ele>
        <time>2012-10-20T14:43:21Z</time>
      </trkpt>
      <trkpt lat="43.44241" lon="6.06187">
        <ele>266.60000610352</ele>
        <time>2012-10-20T14:43:49Z</time>
      </trkpt>
      <trkpt lat="43.44252" lon="6.06245">
        <ele>265.39999389648</ele>
        <time>2012-10-20T14:43:59Z</time>
      </trkpt>
      <trkpt lat="43.44276" lon="6.06413">
        <ele>262.79998779297</ele>
        <time>2012-10-20T14:44:22Z</time>
      </trkpt>
      <trkpt lat="43.44289" lon="6.0651">
        <ele>259</ele>
        <time>2012-10-20T14:44:34Z</time>
      </trkpt>
      <trkpt lat="43.443" lon="6.06552">
        <ele>259</ele>
        <time>2012-10-20T14:44:40Z</time>
      </trkpt>
      <trkpt lat="43.44315" lon="6.06583">
        <ele>257</ele>
        <time>2012-10-20T14:44:45Z</time>
      </trkpt>
      <trkpt lat="43.4435" lon="6.06685">
        <ele>254.39999389648</ele>
        <time>2012-10-20T14:44:59Z</time>
      </trkpt>
      <trkpt lat="43.44339" lon="6.06692">
        <ele>253.80000305176</ele>
        <time>2012-10-20T14:45:02Z</time>
      </trkpt>
      <trkpt lat="43.44335" lon="6.06691">
        <ele>253.39999389648</ele>
        <time>2012-10-20T14:45:03Z</time>
      </trkpt>
      <trkpt lat="43.44314" lon="6.06693">
        <ele>252</ele>
        <time>2012-10-20T14:45:07Z</time>
      </trkpt>
      <trkpt lat="43.44186" lon="6.06718">
        <ele>250.19999694824</ele>
        <time>2012-10-20T14:45:29Z</time>
      </trkpt>
      <trkpt lat="43.4418" lon="6.0672">
        <ele>249.80000305176</ele>
        <time>2012-10-20T14:45:30Z</time>
      </trkpt>
      <trkpt lat="43.44118" lon="6.06741">
        <ele>249.39999389648</ele>
        <time>2012-10-20T14:45:41Z</time>
      </trkpt>
      <trkpt lat="43.44063" lon="6.0675">
        <ele>247.80000305176</ele>
        <time>2012-10-20T14:45:50Z</time>
      </trkpt>
      <trkpt lat="43.4401" lon="6.06769">
        <ele>245.39999389648</ele>
        <time>2012-10-20T14:46:00Z</time>
      </trkpt>
      <trkpt lat="43.43945" lon="6.06787">
        <ele>245.39999389648</ele>
        <time>2012-10-20T14:46:14Z</time>
      </trkpt>
      <trkpt lat="43.43907" lon="6.06793">
        <ele>245.39999389648</ele>
        <time>2012-10-20T14:46:22Z</time>
      </trkpt>
      <trkpt lat="43.43882" lon="6.06793">
        <ele>245.39999389648</ele>
        <time>2012-10-20T14:46:29Z</time>
      </trkpt>
      <trkpt lat="43.43877" lon="6.06796">
        <ele>245.39999389648</ele>
        <time>2012-10-20T14:46:34Z</time>
      </trkpt>
      <trkpt lat="43.43861" lon="6.06928">
        <ele>243.39999389648</ele>
        <time>2012-10-20T14:46:58Z</time>
      </trkpt>
      <trkpt lat="43.43848" lon="6.06945">
        <ele>243.39999389648</ele>
        <time>2012-10-20T14:47:02Z</time>
      </trkpt>
      <trkpt lat="43.43832" lon="6.06984">
        <ele>243.39999389648</ele>
        <time>2012-10-20T14:47:10Z</time>
      </trkpt>
      <trkpt lat="43.43807" lon="6.07018">
        <ele>241.39999389648</ele>
        <time>2012-10-20T14:47:17Z</time>
      </trkpt>
      <trkpt lat="43.43737" lon="6.07089">
        <ele>241.39999389648</ele>
        <time>2012-10-20T14:47:35Z</time>
      </trkpt>
      <trkpt lat="43.43712" lon="6.07109">
        <ele>239.19999694824</ele>
        <time>2012-10-20T14:47:41Z</time>
      </trkpt>
      <trkpt lat="43.43686" lon="6.07121">
        <ele>239.19999694824</ele>
        <time>2012-10-20T14:47:47Z</time>
      </trkpt>
      <trkpt lat="43.4363" lon="6.07111">
        <ele>237.19999694824</ele>
        <time>2012-10-20T14:48:01Z</time>
      </trkpt>
      <trkpt lat="43.43602" lon="6.07103">
        <ele>237.19999694824</ele>
        <time>2012-10-20T14:48:09Z</time>
      </trkpt>
      <trkpt lat="43.43552" lon="6.07089">
        <ele>238.60000610352</ele>
        <time>2012-10-20T14:48:23Z</time>
      </trkpt>
      <trkpt lat="43.43548" lon="6.07088">
        <ele>239</ele>
        <time>2012-10-20T14:48:24Z</time>
      </trkpt>
      <trkpt lat="43.43504" lon="6.07074">
        <ele>240.19999694824</ele>
        <time>2012-10-20T14:48:38Z</time>
      </trkpt>
      <trkpt lat="43.43453" lon="6.07058">
        <ele>241.60000610352</ele>
        <time>2012-10-20T14:48:56Z</time>
      </trkpt>
      <trkpt lat="43.4331" lon="6.07013">
        <ele>239.39999389648</ele>
        <time>2012-10-20T14:49:24Z</time>
      </trkpt>
      <trkpt lat="43.43303" lon="6.07013">
        <ele>239.39999389648</ele>
        <time>2012-10-20T14:49:26Z</time>
      </trkpt>
      <trkpt lat="43.43292" lon="6.07016">
        <ele>239.39999389648</ele>
        <time>2012-10-20T14:49:29Z</time>
      </trkpt>
      <trkpt lat="43.43276" lon="6.07026">
        <ele>239.39999389648</ele>
        <time>2012-10-20T14:49:34Z</time>
      </trkpt>
      <trkpt lat="43.43261" lon="6.0705">
        <ele>239.39999389648</ele>
        <time>2012-10-20T14:49:42Z</time>
      </trkpt>
      <trkpt lat="43.43236" lon="6.07109">
        <ele>239.39999389648</ele>
        <time>2012-10-20T14:50:03Z</time>
      </trkpt>
      <trkpt lat="43.43228" lon="6.07127">
        <ele>239.39999389648</ele>
        <time>2012-10-20T14:50:10Z</time>
      </trkpt>
      <trkpt lat="43.43204" lon="6.07173">
        <ele>241.19999694824</ele>
        <time>2012-10-20T14:50:23Z</time>
      </trkpt>
      <trkpt lat="43.43204" lon="6.07175">
        <ele>241.80000305176</ele>
        <time>2012-10-20T14:50:24Z</time>
      </trkpt>
      <trkpt lat="43.43195" lon="6.07185">
        <ele>245.80000305176</ele>
        <time>2012-10-20T14:50:32Z</time>
      </trkpt>
      <trkpt lat="43.4319" lon="6.07193">
        <ele>246.19999694824</ele>
        <time>2012-10-20T14:50:38Z</time>
      </trkpt>
      <trkpt lat="43.43185" lon="6.07203">
        <ele>246.19999694824</ele>
        <time>2012-10-20T14:50:44Z</time>
      </trkpt>
      <trkpt lat="43.43176" lon="6.07234">
        <ele>250.39999389648</ele>
        <time>2012-10-20T14:51:04Z</time>
      </trkpt>
      <trkpt lat="43.43174" lon="6.07267">
        <ele>252.39999389648</ele>
        <time>2012-10-20T14:51:22Z</time>
      </trkpt>
      <trkpt lat="43.43172" lon="6.07271">
        <ele>252.39999389648</ele>
        <time>2012-10-20T14:51:24Z</time>
      </trkpt>
      <trkpt lat="43.43169" lon="6.07273">
        <ele>252.80000305176</ele>
        <time>2012-10-20T14:51:28Z</time>
      </trkpt>
      <trkpt lat="43.43139" lon="6.07236">
        <ele>259.20001220703</ele>
        <time>2012-10-20T14:52:09Z</time>
      </trkpt>
      <trkpt lat="43.43111" lon="6.07203">
        <ele>263</ele>
        <time>2012-10-20T14:52:43Z</time>
      </trkpt>
      <trkpt lat="43.43102" lon="6.07191">
        <ele>265.20001220703</ele>
        <time>2012-10-20T14:52:50Z</time>
      </trkpt>
      <trkpt lat="43.43102" lon="6.07188">
        <ele>265.60000610352</ele>
        <time>2012-10-20T14:52:52Z</time>
      </trkpt>
      <trkpt lat="43.43103" lon="6.07187">
        <ele>266.60000610352</ele>
        <time>2012-10-20T14:52:54Z</time>
      </trkpt>
      <trkpt lat="43.43103" lon="6.07187">
        <ele>267.39999389648</ele>
        <time>2012-10-20T14:53:13Z</time>
      </trkpt>
      <trkpt lat="43.43101" lon="6.0718">
        <ele>267.39999389648</ele>
        <time>2012-10-20T14:53:34Z</time>
      </trkpt>
      <trkpt lat="43.43098" lon="6.07177">
        <ele>267.39999389648</ele>
        <time>2012-10-20T14:53:37Z</time>
      </trkpt>
      <trkpt lat="43.43095" lon="6.07181">
        <ele>267.39999389648</ele>
        <time>2012-10-20T14:53:44Z</time>
      </trkpt>
      <trkpt lat="43.43098" lon="6.07181">
        <ele>267.39999389648</ele>
        <time>2012-10-20T14:56:37Z</time>
      </trkpt>
      <trkpt lat="43.43093" lon="6.07167">
        <ele>267.39999389648</ele>
        <time>2012-10-20T14:58:12Z</time>
      </trkpt>
      <trkpt lat="43.4309" lon="6.07167">
        <ele>267.39999389648</ele>
        <time>2012-10-20T14:58:14Z</time>
      </trkpt>
      <trkpt lat="43.43084" lon="6.07167">
        <ele>267.39999389648</ele>
        <time>2012-10-20T14:58:20Z</time>
      </trkpt>
      <trkpt lat="43.43074" lon="6.07162">
        <ele>269.60000610352</ele>
        <time>2012-10-20T14:58:28Z</time>
      </trkpt>
      <trkpt lat="43.4307" lon="6.07165">
        <ele>270.39999389648</ele>
        <time>2012-10-20T14:58:32Z</time>
      </trkpt>
      <trkpt lat="43.43068" lon="6.07165">
        <ele>271.60000610352</ele>
        <time>2012-10-20T14:58:35Z</time>
      </trkpt>
      <trkpt lat="43.43067" lon="6.07165">
        <ele>271.60000610352</ele>
        <time>2012-10-20T14:58:45Z</time>
      </trkpt>
      <trkpt lat="43.43067" lon="6.07165">
        <ele>271.60000610352</ele>
        <time>2012-10-20T14:58:55Z</time>
      </trkpt>
      <trkpt lat="43.43054" lon="6.07157">
        <ele>271.60000610352</ele>
        <time>2012-10-20T14:59:23Z</time>
      </trkpt>
      <trkpt lat="43.4304" lon="6.07154">
        <ele>271.60000610352</ele>
        <time>2012-10-20T14:59:28Z</time>
      </trkpt>
      <trkpt lat="43.42999" lon="6.0716">
        <ele>271.60000610352</ele>
        <time>2012-10-20T14:59:39Z</time>
      </trkpt>
      <trkpt lat="43.4296" lon="6.07157">
        <ele>271.60000610352</ele>
        <time>2012-10-20T14:59:46Z</time>
      </trkpt>
      <trkpt lat="43.42913" lon="6.07156">
        <ele>271.60000610352</ele>
        <time>2012-10-20T14:59:54Z</time>
      </trkpt>
      <trkpt lat="43.42863" lon="6.07158">
        <ele>269.60000610352</ele>
        <time>2012-10-20T15:00:02Z</time>
      </trkpt>
      <trkpt lat="43.42808" lon="6.07164">
        <ele>268.79998779297</ele>
        <time>2012-10-20T15:00:10Z</time>
      </trkpt>
      <trkpt lat="43.42735" lon="6.07153">
        <ele>265.79998779297</ele>
        <time>2012-10-20T15:00:19Z</time>
      </trkpt>
      <trkpt lat="43.42574" lon="6.07126">
        <ele>258.39999389648</ele>
        <time>2012-10-20T15:00:38Z</time>
      </trkpt>
      <trkpt lat="43.42553" lon="6.07122">
        <ele>257.20001220703</ele>
        <time>2012-10-20T15:00:42Z</time>
      </trkpt>
      <trkpt lat="43.42551" lon="6.07123">
        <ele>256.60000610352</ele>
        <time>2012-10-20T15:00:43Z</time>
      </trkpt>
      <trkpt lat="43.42551" lon="6.07121">
        <ele>256.20001220703</ele>
        <time>2012-10-20T15:00:44Z</time>
      </trkpt>
      <trkpt lat="43.4255" lon="6.07122">
        <ele>256.20001220703</ele>
        <time>2012-10-20T15:00:49Z</time>
      </trkpt>
      <trkpt lat="43.42553" lon="6.07121">
        <ele>256.20001220703</ele>
        <time>2012-10-20T15:00:59Z</time>
      </trkpt>
      <trkpt lat="43.42552" lon="6.07121">
        <ele>256.20001220703</ele>
        <time>2012-10-20T15:05:04Z</time>
      </trkpt>
      <trkpt lat="43.42536" lon="6.07125">
        <ele>256.20001220703</ele>
        <time>2012-10-20T15:05:50Z</time>
      </trkpt>
      <trkpt lat="43.42529" lon="6.07122">
        <ele>256.20001220703</ele>
        <time>2012-10-20T15:05:52Z</time>
      </trkpt>
      <trkpt lat="43.42526" lon="6.07113">
        <ele>256.20001220703</ele>
        <time>2012-10-20T15:05:56Z</time>
      </trkpt>
      <trkpt lat="43.42524" lon="6.07097">
        <ele>256.20001220703</ele>
        <time>2012-10-20T15:06:01Z</time>
      </trkpt>
      <trkpt lat="43.42522" lon="6.07081">
        <ele>256.20001220703</ele>
        <time>2012-10-20T15:06:05Z</time>
      </trkpt>
      <trkpt lat="43.4252" lon="6.07035">
        <ele>256.60000610352</ele>
        <time>2012-10-20T15:06:16Z</time>
      </trkpt>
      <trkpt lat="43.42517" lon="6.06981">
        <ele>260.39999389648</ele>
        <time>2012-10-20T15:06:33Z</time>
      </trkpt>
      <trkpt lat="43.42503" lon="6.06927">
        <ele>262.60000610352</ele>
        <time>2012-10-20T15:06:54Z</time>
      </trkpt>
      <trkpt lat="43.42503" lon="6.06919">
        <ele>263</ele>
        <time>2012-10-20T15:06:58Z</time>
      </trkpt>
      <trkpt lat="43.42502" lon="6.06883">
        <ele>264.60000610352</ele>
        <time>2012-10-20T15:07:11Z</time>
      </trkpt>
      <trkpt lat="43.42506" lon="6.06853">
        <ele>266.60000610352</ele>
        <time>2012-10-20T15:07:21Z</time>
      </trkpt>
      <trkpt lat="43.42511" lon="6.0682">
        <ele>268.60000610352</ele>
        <time>2012-10-20T15:07:37Z</time>
      </trkpt>
      <trkpt lat="43.42511" lon="6.06818">
        <ele>268.60000610352</ele>
        <time>2012-10-20T15:07:44Z</time>
      </trkpt>
      <trkpt lat="43.42511" lon="6.06818">
        <ele>268.60000610352</ele>
        <time>2012-10-20T15:08:11Z</time>
      </trkpt>
      <trkpt lat="43.42525" lon="6.06764">
        <ele>271.20001220703</ele>
        <time>2012-10-20T15:08:35Z</time>
      </trkpt>
      <trkpt lat="43.42527" lon="6.06755">
        <ele>272.79998779297</ele>
        <time>2012-10-20T15:08:39Z</time>
      </trkpt>
      <trkpt lat="43.42534" lon="6.06677">
        <ele>277.20001220703</ele>
        <time>2012-10-20T15:09:11Z</time>
      </trkpt>
      <trkpt lat="43.42535" lon="6.06675">
        <ele>277.20001220703</ele>
        <time>2012-10-20T15:09:13Z</time>
      </trkpt>
      <trkpt lat="43.4255" lon="6.06645">
        <ele>279.20001220703</ele>
        <time>2012-10-20T15:09:24Z</time>
      </trkpt>
      <trkpt lat="43.42554" lon="6.06628">
        <ele>279.20001220703</ele>
        <time>2012-10-20T15:09:28Z</time>
      </trkpt>
      <trkpt lat="43.4256" lon="6.0662">
        <ele>279.20001220703</ele>
        <time>2012-10-20T15:09:30Z</time>
      </trkpt>
      <trkpt lat="43.42573" lon="6.06606">
        <ele>277.20001220703</ele>
        <time>2012-10-20T15:09:35Z</time>
      </trkpt>
      <trkpt lat="43.42579" lon="6.06586">
        <ele>277.20001220703</ele>
        <time>2012-10-20T15:09:40Z</time>
      </trkpt>
      <trkpt lat="43.42584" lon="6.06546">
        <ele>277.20001220703</ele>
        <time>2012-10-20T15:09:49Z</time>
      </trkpt>
      <trkpt lat="43.42598" lon="6.06502">
        <ele>275.79998779297</ele>
        <time>2012-10-20T15:09:56Z</time>
      </trkpt>
      <trkpt lat="43.42597" lon="6.06495">
        <ele>275.39999389648</ele>
        <time>2012-10-20T15:09:57Z</time>
      </trkpt>
      <trkpt lat="43.42587" lon="6.06467">
        <ele>273</ele>
        <time>2012-10-20T15:10:04Z</time>
      </trkpt>
      <trkpt lat="43.42577" lon="6.06452">
        <ele>271.39999389648</ele>
        <time>2012-10-20T15:10:10Z</time>
      </trkpt>
      <trkpt lat="43.42577" lon="6.06439">
        <ele>271</ele>
        <time>2012-10-20T15:10:13Z</time>
      </trkpt>
      <trkpt lat="43.4257" lon="6.06422">
        <ele>271</ele>
        <time>2012-10-20T15:10:17Z</time>
      </trkpt>
      <trkpt lat="43.42536" lon="6.06369">
        <ele>268.79998779297</ele>
        <time>2012-10-20T15:10:28Z</time>
      </trkpt>
      <trkpt lat="43.42524" lon="6.06365">
        <ele>268.79998779297</ele>
        <time>2012-10-20T15:10:32Z</time>
      </trkpt>
      <trkpt lat="43.42488" lon="6.06379">
        <ele>266.79998779297</ele>
        <time>2012-10-20T15:10:41Z</time>
      </trkpt>
      <trkpt lat="43.42452" lon="6.06385">
        <ele>266.79998779297</ele>
        <time>2012-10-20T15:10:48Z</time>
      </trkpt>
      <trkpt lat="43.42418" lon="6.06409">
        <ele>265.20001220703</ele>
        <time>2012-10-20T15:10:57Z</time>
      </trkpt>
      <trkpt lat="43.42388" lon="6.064">
        <ele>264.79998779297</ele>
        <time>2012-10-20T15:11:05Z</time>
      </trkpt>
      <trkpt lat="43.42373" lon="6.06403">
        <ele>264.39999389648</ele>
        <time>2012-10-20T15:11:08Z</time>
      </trkpt>
      <trkpt lat="43.42352" lon="6.06425">
        <ele>262.60000610352</ele>
        <time>2012-10-20T15:11:13Z</time>
      </trkpt>
      <trkpt lat="43.42334" lon="6.06439">
        <ele>262.60000610352</ele>
        <time>2012-10-20T15:11:17Z</time>
      </trkpt>
      <trkpt lat="43.42317" lon="6.06454">
        <ele>262.60000610352</ele>
        <time>2012-10-20T15:11:21Z</time>
      </trkpt>
      <trkpt lat="43.42284" lon="6.06495">
        <ele>260.60000610352</ele>
        <time>2012-10-20T15:11:28Z</time>
      </trkpt>
      <trkpt lat="43.42261" lon="6.06516">
        <ele>259</ele>
        <time>2012-10-20T15:11:32Z</time>
      </trkpt>
      <trkpt lat="43.42241" lon="6.06518">
        <ele>257.60000610352</ele>
        <time>2012-10-20T15:11:35Z</time>
      </trkpt>
      <trkpt lat="43.42218" lon="6.06511">
        <ele>256</ele>
        <time>2012-10-20T15:11:39Z</time>
      </trkpt>
      <trkpt lat="43.42196" lon="6.0651">
        <ele>254.19999694824</ele>
        <time>2012-10-20T15:11:43Z</time>
      </trkpt>
      <trkpt lat="43.42191" lon="6.065">
        <ele>253.19999694824</ele>
        <time>2012-10-20T15:11:45Z</time>
      </trkpt>
      <trkpt lat="43.42183" lon="6.06453">
        <ele>251.60000610352</ele>
        <time>2012-10-20T15:11:54Z</time>
      </trkpt>
      <trkpt lat="43.42175" lon="6.06411">
        <ele>251.60000610352</ele>
        <time>2012-10-20T15:12:01Z</time>
      </trkpt>
      <trkpt lat="43.42162" lon="6.06344">
        <ele>251.60000610352</ele>
        <time>2012-10-20T15:12:13Z</time>
      </trkpt>
      <trkpt lat="43.42159" lon="6.06323">
        <ele>251.60000610352</ele>
        <time>2012-10-20T15:12:17Z</time>
      </trkpt>
      <trkpt lat="43.42155" lon="6.06288">
        <ele>252</ele>
        <time>2012-10-20T15:12:25Z</time>
      </trkpt>
      <trkpt lat="43.42155" lon="6.06247">
        <ele>255.19999694824</ele>
        <time>2012-10-20T15:12:34Z</time>
      </trkpt>
      <trkpt lat="43.42153" lon="6.06229">
        <ele>256</ele>
        <time>2012-10-20T15:12:39Z</time>
      </trkpt>
      <trkpt lat="43.42148" lon="6.06222">
        <ele>257.20001220703</ele>
        <time>2012-10-20T15:12:42Z</time>
      </trkpt>
      <trkpt lat="43.4214" lon="6.06222">
        <ele>257.60000610352</ele>
        <time>2012-10-20T15:12:45Z</time>
      </trkpt>
      <trkpt lat="43.42134" lon="6.06222">
        <ele>257.60000610352</ele>
        <time>2012-10-20T15:12:47Z</time>
      </trkpt>
      <trkpt lat="43.42112" lon="6.06228">
        <ele>257.60000610352</ele>
        <time>2012-10-20T15:12:53Z</time>
      </trkpt>
      <trkpt lat="43.41949" lon="6.06283">
        <ele>245.60000610352</ele>
        <time>2012-10-20T15:13:14Z</time>
      </trkpt>
      <trkpt lat="43.41922" lon="6.06292">
        <ele>241.60000610352</ele>
        <time>2012-10-20T15:13:18Z</time>
      </trkpt>
      <trkpt lat="43.41917" lon="6.06293">
        <ele>240.60000610352</ele>
        <time>2012-10-20T15:13:19Z</time>
      </trkpt>
      <trkpt lat="43.41891" lon="6.06294">
        <ele>238.39999389648</ele>
        <time>2012-10-20T15:13:25Z</time>
      </trkpt>
      <trkpt lat="43.41865" lon="6.06292">
        <ele>236.39999389648</ele>
        <time>2012-10-20T15:13:29Z</time>
      </trkpt>
      <trkpt lat="43.4181" lon="6.06289">
        <ele>234</ele>
        <time>2012-10-20T15:13:36Z</time>
      </trkpt>
      <trkpt lat="43.41784" lon="6.0627">
        <ele>232.80000305176</ele>
        <time>2012-10-20T15:13:40Z</time>
      </trkpt>
      <trkpt lat="43.41777" lon="6.06265">
        <ele>232.39999389648</ele>
        <time>2012-10-20T15:13:41Z</time>
      </trkpt>
      <trkpt lat="43.41755" lon="6.06254">
        <ele>231</ele>
        <time>2012-10-20T15:13:44Z</time>
      </trkpt>
      <trkpt lat="43.41721" lon="6.06249">
        <ele>229</ele>
        <time>2012-10-20T15:13:48Z</time>
      </trkpt>
      <trkpt lat="43.4169" lon="6.06249">
        <ele>227.19999694824</ele>
        <time>2012-10-20T15:13:52Z</time>
      </trkpt>
      <trkpt lat="43.41661" lon="6.06244">
        <ele>227.19999694824</ele>
        <time>2012-10-20T15:13:57Z</time>
      </trkpt>
      <trkpt lat="43.41635" lon="6.06235">
        <ele>227.19999694824</ele>
        <time>2012-10-20T15:14:02Z</time>
      </trkpt>
      <trkpt lat="43.41613" lon="6.06208">
        <ele>225</ele>
        <time>2012-10-20T15:14:07Z</time>
      </trkpt>
      <trkpt lat="43.416" lon="6.06205">
        <ele>225</ele>
        <time>2012-10-20T15:14:10Z</time>
      </trkpt>
      <trkpt lat="43.41591" lon="6.06203">
        <ele>225</ele>
        <time>2012-10-20T15:14:14Z</time>
      </trkpt>
      <trkpt lat="43.41583" lon="6.06194">
        <ele>224.19999694824</ele>
        <time>2012-10-20T15:14:18Z</time>
      </trkpt>
      <trkpt lat="43.4158" lon="6.06184">
        <ele>222.80000305176</ele>
        <time>2012-10-20T15:14:21Z</time>
      </trkpt>
      <trkpt lat="43.41579" lon="6.06182">
        <ele>222.80000305176</ele>
        <time>2012-10-20T15:14:31Z</time>
      </trkpt>
      <trkpt lat="43.41579" lon="6.06182">
        <ele>222.80000305176</ele>
        <time>2012-10-20T15:14:34Z</time>
      </trkpt>
      <trkpt lat="43.41567" lon="6.06176">
        <ele>222.80000305176</ele>
        <time>2012-10-20T15:14:41Z</time>
      </trkpt>
      <trkpt lat="43.41554" lon="6.06176">
        <ele>222.80000305176</ele>
        <time>2012-10-20T15:14:45Z</time>
      </trkpt>
      <trkpt lat="43.41546" lon="6.06181">
        <ele>222.80000305176</ele>
        <time>2012-10-20T15:14:47Z</time>
      </trkpt>
      <trkpt lat="43.415" lon="6.06188">
        <ele>220.80000305176</ele>
        <time>2012-10-20T15:14:55Z</time>
      </trkpt>
      <trkpt lat="43.41476" lon="6.06183">
        <ele>220.80000305176</ele>
        <time>2012-10-20T15:14:59Z</time>
      </trkpt>
      <trkpt lat="43.41422" lon="6.06168">
        <ele>219.80000305176</ele>
        <time>2012-10-20T15:15:08Z</time>
      </trkpt>
      <trkpt lat="43.41398" lon="6.06152">
        <ele>218.60000610352</ele>
        <time>2012-10-20T15:15:12Z</time>
      </trkpt>
      <trkpt lat="43.41365" lon="6.06117">
        <ele>216.80000305176</ele>
        <time>2012-10-20T15:15:18Z</time>
      </trkpt>
      <trkpt lat="43.41309" lon="6.06061">
        <ele>214</ele>
        <time>2012-10-20T15:15:28Z</time>
      </trkpt>
      <trkpt lat="43.41291" lon="6.06064">
        <ele>213.60000610352</ele>
        <time>2012-10-20T15:15:31Z</time>
      </trkpt>
      <trkpt lat="43.41236" lon="6.06095">
        <ele>211.60000610352</ele>
        <time>2012-10-20T15:15:42Z</time>
      </trkpt>
      <trkpt lat="43.41193" lon="6.0612">
        <ele>208.80000305176</ele>
        <time>2012-10-20T15:15:56Z</time>
      </trkpt>
      <trkpt lat="43.4119" lon="6.06127">
        <ele>208</ele>
        <time>2012-10-20T15:15:59Z</time>
      </trkpt>
      <trkpt lat="43.4119" lon="6.0613">
        <ele>208</ele>
        <time>2012-10-20T15:16:02Z</time>
      </trkpt>
      <trkpt lat="43.4119" lon="6.0613">
        <ele>208</ele>
        <time>2012-10-20T15:16:15Z</time>
      </trkpt>
      <trkpt lat="43.41197" lon="6.06185">
        <ele>208</ele>
        <time>2012-10-20T15:16:32Z</time>
      </trkpt>
      <trkpt lat="43.41196" lon="6.06201">
        <ele>208</ele>
        <time>2012-10-20T15:16:37Z</time>
      </trkpt>
      <trkpt lat="43.41153" lon="6.06211">
        <ele>208</ele>
        <time>2012-10-20T15:16:52Z</time>
      </trkpt>
      <trkpt lat="43.41134" lon="6.06217">
        <ele>208</ele>
        <time>2012-10-20T15:16:57Z</time>
      </trkpt>
      <trkpt lat="43.41109" lon="6.0623">
        <ele>208</ele>
        <time>2012-10-20T15:17:03Z</time>
      </trkpt>
      <trkpt lat="43.4104" lon="6.06253">
        <ele>205.60000610352</ele>
        <time>2012-10-20T15:17:19Z</time>
      </trkpt>
      <trkpt lat="43.4101" lon="6.06258">
        <ele>205.60000610352</ele>
        <time>2012-10-20T15:17:26Z</time>
      </trkpt>
      <trkpt lat="43.40983" lon="6.06262">
        <ele>205.60000610352</ele>
        <time>2012-10-20T15:17:33Z</time>
      </trkpt>
      <trkpt lat="43.40963" lon="6.06256">
        <ele>205.60000610352</ele>
        <time>2012-10-20T15:17:42Z</time>
      </trkpt>
      <trkpt lat="43.40955" lon="6.06261">
        <ele>205.60000610352</ele>
        <time>2012-10-20T15:17:52Z</time>
      </trkpt>
      <trkpt lat="43.40946" lon="6.06288">
        <ele>205.60000610352</ele>
        <time>2012-10-20T15:18:01Z</time>
      </trkpt>
      <trkpt lat="43.40868" lon="6.06388">
        <ele>204.80000305176</ele>
        <time>2012-10-20T15:18:23Z</time>
      </trkpt>
      <trkpt lat="43.40854" lon="6.06402">
        <ele>203.60000610352</ele>
        <time>2012-10-20T15:18:26Z</time>
      </trkpt>
      <trkpt lat="43.40828" lon="6.06416">
        <ele>203.60000610352</ele>
        <time>2012-10-20T15:18:31Z</time>
      </trkpt>
      <trkpt lat="43.40798" lon="6.06408">
        <ele>203.60000610352</ele>
        <time>2012-10-20T15:18:37Z</time>
      </trkpt>
      <trkpt lat="43.40785" lon="6.06408">
        <ele>203.60000610352</ele>
        <time>2012-10-20T15:18:40Z</time>
      </trkpt>
      <trkpt lat="43.40744" lon="6.06416">
        <ele>203.60000610352</ele>
        <time>2012-10-20T15:18:51Z</time>
      </trkpt>
      <trkpt lat="43.40728" lon="6.06423">
        <ele>203.60000610352</ele>
        <time>2012-10-20T15:18:56Z</time>
      </trkpt>
      <trkpt lat="43.40691" lon="6.06432">
        <ele>203.60000610352</ele>
        <time>2012-10-20T15:19:09Z</time>
      </trkpt>
      <trkpt lat="43.40677" lon="6.06443">
        <ele>205.60000610352</ele>
        <time>2012-10-20T15:19:16Z</time>
      </trkpt>
      <trkpt lat="43.40667" lon="6.06453">
        <ele>206</ele>
        <time>2012-10-20T15:19:21Z</time>
      </trkpt>
      <trkpt lat="43.40639" lon="6.06485">
        <ele>208</ele>
        <time>2012-10-20T15:19:34Z</time>
      </trkpt>
      <trkpt lat="43.40619" lon="6.06503">
        <ele>210</ele>
        <time>2012-10-20T15:19:43Z</time>
      </trkpt>
      <trkpt lat="43.40612" lon="6.06506">
        <ele>210</ele>
        <time>2012-10-20T15:19:47Z</time>
      </trkpt>
      <trkpt lat="43.40596" lon="6.06505">
        <ele>211.60000610352</ele>
        <time>2012-10-20T15:19:55Z</time>
      </trkpt>
      <trkpt lat="43.40584" lon="6.06501">
        <ele>212</ele>
        <time>2012-10-20T15:20:01Z</time>
      </trkpt>
      <trkpt lat="43.40548" lon="6.065">
        <ele>213.60000610352</ele>
        <time>2012-10-20T15:20:17Z</time>
      </trkpt>
      <trkpt lat="43.40533" lon="6.0649">
        <ele>214</ele>
        <time>2012-10-20T15:20:24Z</time>
      </trkpt>
      <trkpt lat="43.40486" lon="6.06471">
        <ele>216</ele>
        <time>2012-10-20T15:20:44Z</time>
      </trkpt>
      <trkpt lat="43.40425" lon="6.06452">
        <ele>218.60000610352</ele>
        <time>2012-10-20T15:21:08Z</time>
      </trkpt>
      <trkpt lat="43.4042" lon="6.06452">
        <ele>220</ele>
        <time>2012-10-20T15:21:10Z</time>
      </trkpt>
      <trkpt lat="43.40414" lon="6.06458">
        <ele>220.39999389648</ele>
        <time>2012-10-20T15:21:13Z</time>
      </trkpt>
      <trkpt lat="43.40408" lon="6.06478">
        <ele>220.39999389648</ele>
        <time>2012-10-20T15:21:19Z</time>
      </trkpt>
      <trkpt lat="43.40404" lon="6.06503">
        <ele>220.39999389648</ele>
        <time>2012-10-20T15:21:26Z</time>
      </trkpt>
      <trkpt lat="43.40399" lon="6.06531">
        <ele>220.39999389648</ele>
        <time>2012-10-20T15:21:34Z</time>
      </trkpt>
      <trkpt lat="43.40403" lon="6.06542">
        <ele>220.39999389648</ele>
        <time>2012-10-20T15:21:38Z</time>
      </trkpt>
      <trkpt lat="43.40407" lon="6.06542">
        <ele>220.39999389648</ele>
        <time>2012-10-20T15:21:43Z</time>
      </trkpt>
      <trkpt lat="43.40416" lon="6.06548">
        <ele>220.39999389648</ele>
        <time>2012-10-20T15:22:02Z</time>
      </trkpt>
    </trkseg>
  </trk>
</gpx>